createdAt,value
2018-07-22T00:00:09.758Z,50.80
2018-07-22T00:02:39.279Z,50.81
2018-07-22T00:05:08.889Z,50.59
2018-07-22T00:07:38.413Z,50.29
2018-07-22T00:10:17.845Z,49.98
2018-07-22T00:12:47.015Z,49.56
2018-07-22T00:15:16.171Z,50.03
2018-07-22T00:17:45.324Z,50.11
2018-07-22T00:20:15.228Z,49.54
2018-07-22T00:22:44.530Z,49.91
2018-07-22T00:25:13.660Z,51.03
2018-07-22T00:27:42.848Z,50.85
2018-07-22T00:30:11.998Z,50.95
2018-07-22T00:32:42.250Z,51.83
2018-07-22T00:35:12.466Z,51.53
2018-07-22T00:37:42.213Z,51.67
2018-07-22T00:40:12.306Z,52.16
2018-07-22T00:42:41.539Z,52.05
2018-07-22T00:45:13.258Z,51.84
2018-07-22T00:47:43.190Z,51.94
2018-07-22T00:50:12.348Z,51.80
2018-07-22T00:52:41.551Z,52.12
2018-07-22T00:55:10.729Z,52.01
2018-07-22T00:57:39.862Z,52.64
2018-07-22T01:00:09.399Z,52.28
2018-07-22T01:02:38.602Z,52.57
2018-07-22T01:05:08.079Z,52.10
2018-07-22T01:07:37.378Z,52.63
2018-07-22T01:10:06.981Z,52.04
2018-07-22T01:12:36.195Z,52.31
2018-07-22T01:15:06.071Z,52.46
2018-07-22T01:17:35.235Z,52.38
2018-07-22T01:20:04.915Z,52.63
2018-07-22T01:22:34.111Z,52.61
2018-07-22T01:25:03.312Z,51.81
2018-07-22T01:27:32.512Z,52.58
2018-07-22T01:30:01.689Z,52.06
2018-07-22T01:32:30.908Z,52.26
2018-07-22T01:35:00.067Z,52.81
2018-07-22T01:37:29.262Z,52.42
2018-07-22T01:39:58.387Z,52.77
2018-07-22T01:42:27.688Z,53.00
2018-07-22T01:44:56.817Z,53.79
2018-07-22T01:47:25.982Z,54.37
2018-07-22T01:49:55.972Z,54.40
2018-07-22T01:52:25.113Z,54.36
2018-07-22T01:54:54.837Z,54.04
2018-07-22T01:57:24.022Z,55.10
2018-07-22T01:59:53.222Z,54.79
2018-07-22T02:02:22.346Z,55.56
2018-07-22T02:04:51.529Z,55.55
2018-07-22T02:07:20.708Z,55.88
2018-07-22T02:09:49.882Z,55.21
2018-07-22T02:12:19.023Z,55.84
2018-07-22T02:14:48.138Z,56.10
2018-07-22T02:17:17.242Z,56.31
2018-07-22T02:19:46.416Z,56.42
2018-07-22T02:22:15.674Z,57.25
2018-07-22T02:24:45.582Z,56.77
2018-07-22T02:27:15.610Z,57.62
2018-07-22T02:29:44.750Z,58.17
2018-07-22T02:32:13.919Z,57.82
2018-07-22T02:34:43.020Z,58.69
2018-07-22T02:37:12.199Z,57.92
2018-07-22T02:39:41.298Z,57.86
2018-07-22T02:42:10.962Z,57.81
2018-07-22T02:44:40.127Z,57.75
2018-07-22T02:47:09.255Z,58.16
2018-07-22T02:49:38.356Z,57.45
2018-07-22T02:52:07.803Z,58.21
2018-07-22T02:54:36.925Z,57.45
2018-07-22T02:57:07.014Z,58.65
2018-07-22T02:59:36.108Z,58.44
2018-07-22T03:02:05.240Z,59.59
2018-07-22T03:04:34.403Z,58.80
2018-07-22T03:07:03.525Z,59.68
2018-07-22T03:09:32.688Z,59.50
2018-07-22T03:12:01.835Z,59.69
2018-07-22T03:14:30.986Z,59.94
2018-07-22T03:17:00.200Z,59.91
2018-07-22T03:19:29.373Z,59.32
2018-07-22T03:21:58.490Z,59.53
2018-07-22T03:24:27.678Z,59.32
2018-07-22T03:26:56.953Z,60.05
2018-07-22T03:29:26.150Z,60.01
2018-07-22T03:31:55.301Z,59.86
2018-07-22T03:34:24.493Z,59.28
2018-07-22T03:36:53.779Z,59.42
2018-07-22T03:39:23.054Z,59.61
2018-07-22T03:41:52.289Z,59.29
2018-07-22T03:44:21.802Z,59.76
2018-07-22T03:46:50.977Z,58.80
2018-07-22T03:49:20.154Z,59.30
2018-07-22T03:51:49.258Z,58.79
2018-07-22T03:54:18.437Z,58.58
2018-07-22T03:56:47.671Z,58.59
2018-07-22T03:59:16.911Z,58.25
2018-07-22T04:01:46.049Z,58.24
2018-07-22T04:04:15.213Z,58.13
2018-07-22T04:06:44.383Z,57.89
2018-07-22T04:09:13.570Z,58.15
2018-07-22T04:11:42.742Z,57.08
2018-07-22T04:14:11.980Z,57.61
2018-07-22T04:16:41.181Z,57.45
2018-07-22T04:19:10.322Z,56.52
2018-07-22T04:21:39.471Z,55.72
2018-07-22T04:24:08.632Z,55.72
2018-07-22T04:26:37.869Z,55.45
2018-07-22T04:29:07.150Z,55.11
2018-07-22T04:31:36.353Z,55.71
2018-07-22T04:34:05.587Z,55.03
2018-07-22T04:36:34.733Z,55.38
2018-07-22T04:39:06.491Z,55.58
2018-07-22T04:41:35.656Z,55.06
2018-07-22T04:44:04.798Z,54.90
2018-07-22T04:46:33.941Z,54.88
2018-07-22T04:49:03.170Z,54.83
2018-07-22T04:51:33.200Z,54.09
2018-07-22T04:54:02.452Z,54.56
2018-07-22T04:56:31.618Z,53.51
2018-07-22T04:59:00.791Z,53.76
2018-07-22T05:01:29.927Z,53.33
2018-07-22T05:03:59.070Z,52.76
2018-07-22T05:06:29.222Z,52.85
2018-07-22T05:08:58.413Z,52.45
2018-07-22T05:11:28.343Z,52.12
2018-07-22T05:13:57.526Z,52.53
2018-07-22T05:16:27.339Z,52.56
2018-07-22T05:18:56.517Z,51.77
2018-07-22T05:21:25.770Z,51.72
2018-07-22T05:23:54.914Z,51.36
2018-07-22T05:26:24.059Z,51.93
2018-07-22T05:28:53.311Z,51.46
2018-07-22T05:31:22.510Z,51.85
2018-07-22T05:33:51.657Z,51.73
2018-07-22T05:36:20.815Z,51.52
2018-07-22T05:38:50.034Z,51.57
2018-07-22T05:41:19.192Z,51.56
2018-07-22T05:43:48.334Z,50.75
2018-07-22T05:46:17.853Z,51.27
2018-07-22T05:48:47.066Z,50.89
2018-07-22T05:51:16.217Z,50.11
2018-07-22T05:53:45.365Z,50.46
2018-07-22T05:56:14.514Z,49.47
2018-07-22T05:58:43.714Z,49.22
2018-07-22T06:01:12.874Z,48.50
2018-07-22T06:03:42.724Z,48.26
2018-07-22T06:06:11.875Z,47.96
2018-07-22T06:08:41.005Z,47.35
2018-07-22T06:11:10.184Z,46.93
2018-07-22T06:13:39.325Z,47.16
2018-07-22T06:16:08.565Z,46.00
2018-07-22T06:18:37.705Z,45.92
2018-07-22T06:21:07.132Z,44.47
2018-07-22T06:23:36.291Z,44.73
2018-07-22T06:26:06.008Z,43.56
2018-07-22T06:28:35.177Z,43.84
2018-07-22T06:31:04.345Z,43.11
2018-07-22T06:33:33.494Z,42.82
2018-07-22T06:36:02.684Z,42.63
2018-07-22T06:38:32.869Z,42.77
2018-07-22T06:41:02.054Z,41.87
2018-07-22T06:43:31.209Z,42.41
2018-07-22T06:46:00.341Z,42.04
2018-07-22T06:48:29.555Z,41.40
2018-07-22T06:50:58.701Z,41.02
2018-07-22T06:53:27.897Z,40.30
2018-07-22T06:55:57.022Z,40.04
2018-07-22T06:58:26.169Z,39.44
2018-07-22T07:00:55.317Z,39.75
2018-07-22T07:03:24.506Z,38.08
2018-07-22T07:05:53.658Z,37.12
2018-07-22T07:08:22.770Z,37.06
2018-07-22T07:10:51.951Z,36.12
2018-07-22T07:13:21.047Z,35.33
2018-07-22T07:15:50.150Z,34.79
2018-07-22T07:18:19.268Z,34.73
2018-07-22T07:20:48.462Z,33.37
2018-07-22T07:23:17.570Z,32.80
2018-07-22T07:25:46.873Z,31.71
2018-07-22T07:28:16.031Z,31.69
2018-07-22T07:30:45.190Z,32.56
2018-07-22T07:33:14.345Z,31.38
2018-07-22T07:35:43.527Z,31.42
2018-07-22T07:38:12.704Z,30.85
2018-07-22T07:40:41.840Z,29.39
2018-07-22T07:43:11.061Z,27.07
2018-07-22T07:45:40.775Z,26.09
2018-07-22T07:48:09.978Z,24.17
2018-07-22T07:50:39.479Z,24.18
2018-07-22T07:53:08.826Z,23.64
2018-07-22T07:55:37.833Z,23.87
2018-07-22T07:58:06.999Z,23.33
2018-07-22T08:00:36.475Z,23.00
2018-07-22T08:03:05.693Z,22.85
2018-07-22T08:05:34.834Z,22.41
2018-07-22T08:08:04.023Z,22.93
2018-07-22T08:10:33.193Z,23.02
2018-07-22T08:13:02.432Z,22.96
2018-07-22T08:15:31.597Z,22.94
2018-07-22T08:18:00.738Z,23.05
2018-07-22T08:20:29.944Z,22.40
2018-07-22T08:22:59.129Z,22.93
2018-07-22T08:25:28.293Z,22.46
2018-07-22T08:27:57.498Z,22.15
2018-07-22T08:30:26.800Z,22.01
2018-07-22T08:32:56.024Z,21.56
2018-07-22T08:35:25.190Z,20.45
2018-07-22T08:37:54.390Z,20.42
2018-07-22T08:40:23.614Z,19.69
2018-07-22T08:42:52.819Z,19.39
2018-07-22T08:45:23.114Z,19.61
2018-07-22T08:47:52.417Z,19.18
2018-07-22T08:50:21.558Z,19.12
2018-07-22T08:52:50.825Z,19.26
2018-07-22T08:55:20.063Z,19.23
2018-07-22T08:57:49.311Z,18.76
2018-07-22T09:00:18.544Z,18.61
2018-07-22T09:02:47.792Z,18.26
2018-07-22T09:05:17.009Z,18.06
2018-07-22T09:07:46.226Z,17.75
2018-07-22T09:10:15.536Z,17.83
2018-07-22T09:12:44.770Z,18.06
2018-07-22T09:15:15.366Z,18.52
2018-07-22T09:17:44.603Z,19.14
2018-07-22T09:20:13.742Z,19.01
2018-07-22T09:22:43.032Z,19.26
2018-07-22T09:25:12.233Z,18.99
2018-07-22T09:27:41.449Z,19.11
2018-07-22T09:30:10.605Z,19.08
2018-07-22T09:32:40.029Z,19.01
2018-07-22T09:35:09.190Z,18.87
2018-07-22T09:37:38.348Z,18.65
2018-07-22T09:40:07.559Z,18.68
2018-07-22T09:42:36.703Z,18.42
2018-07-22T09:45:06.018Z,18.49
2018-07-22T09:47:35.218Z,18.88
2018-07-22T09:50:04.382Z,19.06
2018-07-22T09:52:33.534Z,18.79
2018-07-22T09:55:02.700Z,19.69
2018-07-22T09:57:34.635Z,20.60
2018-07-22T10:00:03.827Z,20.67
2018-07-22T10:02:33.006Z,20.66
2018-07-22T10:05:02.146Z,20.88
2018-07-22T10:07:31.288Z,20.71
2018-07-22T10:10:00.490Z,20.60
2018-07-22T10:12:29.660Z,20.68
2018-07-22T10:14:58.819Z,21.03
2018-07-22T10:17:28.022Z,20.66
2018-07-22T10:19:57.146Z,21.17
2018-07-22T10:22:26.287Z,20.95
2018-07-22T10:24:55.398Z,20.60
2018-07-22T10:27:24.646Z,20.80
2018-07-22T10:29:53.826Z,20.38
2018-07-22T10:32:23.131Z,20.42
2018-07-22T10:34:52.397Z,20.64
2018-07-22T10:37:21.662Z,21.96
2018-07-22T10:39:50.841Z,22.01
2018-07-22T10:42:19.986Z,21.77
2018-07-22T10:44:49.185Z,21.69
2018-07-22T10:47:18.385Z,22.46
2018-07-22T10:49:47.583Z,22.58
2018-07-22T10:52:16.941Z,22.93
2018-07-22T10:54:46.081Z,23.70
2018-07-22T10:57:16.920Z,23.31
2018-07-22T10:59:46.760Z,23.86
2018-07-22T11:02:15.757Z,24.41
2018-07-22T11:04:45.030Z,24.67
2018-07-22T11:07:14.344Z,24.01
2018-07-22T11:09:44.435Z,23.70
2018-07-22T11:12:13.673Z,23.77
2018-07-22T11:14:42.933Z,23.66
2018-07-22T11:17:12.347Z,23.74
2018-07-22T11:19:41.507Z,24.25
2018-07-22T11:22:10.722Z,24.11
2018-07-22T11:24:39.930Z,23.95
2018-07-22T11:27:20.771Z,24.18
2018-07-22T11:29:49.940Z,24.75
2018-07-22T11:32:19.203Z,25.36
2018-07-22T11:34:48.417Z,25.66
2018-07-22T11:37:18.387Z,24.88
2018-07-22T11:39:47.547Z,24.98
2018-07-22T11:42:16.796Z,25.79
2018-07-22T11:44:45.985Z,25.20
2018-07-22T11:47:15.118Z,25.71
2018-07-22T11:49:44.268Z,25.06
2018-07-22T11:52:13.464Z,25.42
2018-07-22T11:54:42.591Z,24.87
2018-07-22T11:57:11.768Z,25.05
2018-07-22T11:59:40.889Z,25.58
2018-07-22T12:02:10.062Z,25.40
2018-07-22T12:04:39.230Z,25.00
2018-07-22T12:07:08.362Z,25.36
2018-07-22T12:09:37.560Z,25.34
2018-07-22T12:12:07.496Z,26.04
2018-07-22T12:14:36.674Z,26.18
2018-07-22T12:17:06.880Z,25.90
2018-07-22T12:19:36.062Z,26.57
2018-07-22T12:22:05.234Z,26.99
2018-07-22T12:24:34.391Z,26.32
2018-07-22T12:27:03.545Z,27.21
2018-07-22T12:29:32.744Z,26.36
2018-07-22T12:32:01.917Z,26.59
2018-07-22T12:34:31.210Z,26.74
2018-07-22T12:37:00.569Z,27.25
2018-07-22T12:39:29.753Z,27.66
2018-07-22T12:41:58.863Z,27.69
2018-07-22T12:44:28.085Z,27.69
2018-07-22T12:46:57.313Z,27.17
2018-07-22T12:49:26.536Z,28.24
2018-07-22T12:51:55.652Z,27.45
2018-07-22T12:54:25.715Z,27.82
2018-07-22T12:56:54.882Z,27.87
2018-07-22T12:59:24.022Z,27.01
2018-07-22T13:01:53.190Z,27.74
2018-07-22T13:04:22.387Z,27.93
2018-07-22T13:06:51.782Z,27.81
2018-07-22T13:09:20.946Z,27.52
2018-07-22T13:11:50.128Z,27.76
2018-07-22T13:14:19.476Z,27.95
2018-07-22T13:16:49.341Z,28.45
2018-07-22T13:19:18.539Z,27.45
2018-07-22T13:21:48.698Z,28.51
2018-07-22T13:24:17.877Z,28.51
2018-07-22T13:26:49.214Z,28.44
2018-07-22T13:29:18.521Z,29.06
2018-07-22T13:31:48.319Z,28.07
2018-07-22T13:34:17.471Z,28.34
2018-07-22T13:36:46.652Z,28.49
2018-07-22T13:39:15.854Z,28.41
2018-07-22T13:41:44.984Z,28.88
2018-07-22T13:44:14.133Z,29.03
2018-07-22T13:46:43.345Z,28.36
2018-07-22T13:49:12.847Z,28.29
2018-07-22T13:51:41.966Z,28.57
2018-07-22T13:54:11.139Z,29.35
2018-07-22T13:56:40.324Z,29.28
2018-07-22T13:59:09.538Z,29.27
2018-07-22T14:01:38.715Z,30.53
2018-07-22T14:04:08.064Z,30.26
2018-07-22T14:06:37.332Z,31.23
2018-07-22T14:09:09.407Z,31.30
2018-07-22T14:11:38.578Z,31.52
2018-07-22T14:14:08.293Z,31.00
2018-07-22T14:16:37.711Z,32.00
2018-07-22T14:19:07.073Z,32.55
2018-07-22T14:21:36.279Z,32.46
2018-07-22T14:24:05.383Z,32.22
2018-07-22T14:26:35.059Z,32.81
2018-07-22T14:29:04.638Z,32.32
2018-07-22T14:31:33.810Z,33.05
2018-07-22T14:34:02.950Z,32.39
2018-07-22T14:36:32.216Z,33.07
2018-07-22T14:39:01.581Z,32.42
2018-07-22T14:41:30.772Z,33.45
2018-07-22T14:43:59.912Z,32.99
2018-07-22T14:46:29.099Z,33.37
2018-07-22T14:48:58.269Z,33.14
2018-07-22T14:51:27.245Z,33.31
2018-07-22T14:53:56.414Z,32.16
2018-07-22T14:56:25.619Z,32.24
2018-07-22T14:58:54.799Z,32.88
2018-07-22T15:01:23.964Z,32.08
2018-07-22T15:03:54.029Z,32.22
2018-07-22T15:06:23.229Z,33.02
2018-07-22T15:08:52.414Z,32.79
2018-07-22T15:11:21.948Z,32.20
2018-07-22T15:13:51.128Z,32.77
2018-07-22T15:16:20.319Z,33.57
2018-07-22T15:18:49.417Z,32.85
2018-07-22T15:21:18.554Z,33.93
2018-07-22T15:23:47.819Z,33.51
2018-07-22T15:26:16.984Z,32.93
2018-07-22T15:28:46.144Z,33.38
2018-07-22T15:31:15.287Z,34.21
2018-07-22T15:33:44.989Z,33.58
2018-07-22T15:36:14.215Z,33.96
2018-07-22T15:38:43.366Z,34.32
2018-07-22T15:41:12.619Z,34.75
2018-07-22T15:43:42.348Z,34.84
2018-07-22T15:46:12.987Z,33.81
2018-07-22T15:48:42.097Z,34.49
2018-07-22T15:51:11.248Z,34.57
2018-07-22T15:53:41.389Z,34.63
2018-07-22T15:56:10.523Z,34.19
2018-07-22T15:58:41.397Z,34.34
2018-07-22T16:01:11.319Z,35.32
2018-07-22T16:03:42.293Z,35.70
2018-07-22T16:06:12.131Z,35.28
2018-07-22T16:08:41.770Z,34.63
2018-07-22T16:11:12.135Z,35.32
2018-07-22T16:13:41.949Z,34.75
2018-07-22T16:16:11.190Z,35.48
2018-07-22T16:18:40.730Z,35.15
2018-07-22T16:21:10.362Z,35.37
2018-07-22T16:23:40.822Z,34.92
2018-07-22T16:26:10.797Z,35.94
2018-07-22T16:28:39.946Z,36.02
2018-07-22T16:31:09.125Z,35.92
2018-07-22T16:33:38.333Z,36.09
2018-07-22T16:36:07.510Z,35.97
2018-07-22T16:38:36.636Z,35.08
2018-07-22T16:41:05.790Z,35.03
2018-07-22T16:43:36.040Z,35.30
2018-07-22T16:46:05.210Z,35.18
2018-07-22T16:48:34.370Z,35.67
2018-07-22T16:51:03.915Z,36.08
2018-07-22T16:53:33.115Z,36.27
2018-07-22T16:56:02.309Z,35.94
2018-07-22T16:58:31.496Z,36.66
2018-07-22T17:01:00.843Z,35.62
2018-07-22T17:03:30.072Z,36.14
2018-07-22T17:05:59.267Z,36.19
2018-07-22T17:08:28.465Z,37.15
2018-07-22T17:10:57.632Z,37.23
2018-07-22T17:13:26.814Z,37.29
2018-07-22T17:15:57.717Z,37.93
2018-07-22T17:18:27.402Z,36.76
2018-07-22T17:20:57.110Z,37.02
2018-07-22T17:23:27.475Z,36.74
2018-07-22T17:25:57.129Z,36.85
2018-07-22T17:28:27.310Z,37.65
2018-07-22T17:30:56.546Z,37.70
2018-07-22T17:33:27.312Z,37.40
2018-07-22T17:35:56.819Z,38.13
2018-07-22T17:38:26.050Z,37.82
2018-07-22T17:40:55.167Z,38.07
2018-07-22T17:43:25.415Z,38.08
2018-07-22T17:45:54.573Z,38.17
2018-07-22T17:48:24.708Z,38.10
2018-07-22T17:50:55.573Z,39.28
2018-07-22T17:53:25.874Z,39.49
2018-07-22T17:55:56.425Z,39.79
2018-07-22T17:58:26.814Z,39.14
2018-07-22T18:00:55.942Z,39.95
2018-07-22T18:03:28.910Z,39.77
2018-07-22T18:05:58.331Z,40.28
2018-07-22T18:08:28.599Z,39.72
2018-07-22T18:10:58.830Z,40.70
2018-07-22T18:13:29.532Z,41.01
2018-07-22T18:16:00.394Z,41.24
2018-07-22T18:18:30.185Z,41.18
2018-07-22T18:20:59.528Z,40.84
2018-07-22T18:23:29.048Z,41.02
2018-07-22T18:25:58.238Z,41.50
2018-07-22T18:28:28.414Z,42.69
2018-07-22T18:30:59.038Z,42.59
2018-07-22T18:33:28.971Z,43.88
2018-07-22T18:35:58.202Z,43.96
2018-07-22T18:38:27.358Z,44.11
2018-07-22T18:40:57.075Z,45.01
2018-07-22T18:43:27.710Z,44.95
2018-07-22T18:45:56.913Z,45.99
2018-07-22T18:48:26.136Z,46.42
2018-07-22T18:50:56.043Z,46.95
2018-07-22T18:53:25.324Z,47.70
2018-07-22T18:55:56.167Z,47.74
2018-07-22T18:58:25.606Z,48.21
2018-07-22T19:00:54.980Z,48.91
2018-07-22T19:03:25.737Z,48.45
2018-07-22T19:05:54.978Z,48.80
2018-07-22T19:08:24.163Z,49.85
2018-07-22T19:10:53.410Z,49.25
2018-07-22T19:13:22.546Z,50.12
2018-07-22T19:15:51.780Z,50.57
2018-07-22T19:18:21.028Z,50.01
2018-07-22T19:20:50.186Z,50.40
2018-07-22T19:23:19.551Z,51.66
2018-07-22T19:25:48.756Z,51.90
2018-07-22T19:28:17.951Z,52.31
2018-07-22T19:30:47.326Z,52.41
2018-07-22T19:33:16.488Z,53.20
2018-07-22T19:35:45.683Z,53.39
2018-07-22T19:38:14.897Z,53.08
2018-07-22T19:40:44.112Z,52.99
2018-07-22T19:43:13.105Z,54.00
2018-07-22T19:45:42.310Z,54.36
2018-07-22T19:48:11.906Z,54.64
2018-07-22T19:50:41.043Z,54.93
2018-07-22T19:53:10.233Z,55.18
2018-07-22T19:55:39.548Z,55.40
2018-07-22T19:58:08.717Z,55.52
2018-07-22T20:00:37.940Z,55.66
2018-07-22T20:03:07.483Z,55.91
2018-07-22T20:05:36.939Z,56.13
2018-07-22T20:08:06.338Z,56.37
2018-07-22T20:10:35.490Z,56.86
2018-07-22T20:13:04.674Z,56.44
2018-07-22T20:15:33.834Z,56.74
2018-07-22T20:18:03.044Z,57.62
2018-07-22T20:20:32.167Z,57.45
2018-07-22T20:23:04.583Z,58.06
2018-07-22T20:25:33.719Z,58.75
2018-07-22T20:28:02.997Z,59.08
2018-07-22T20:30:32.810Z,59.63
2018-07-22T20:33:01.979Z,59.89
2018-07-22T20:35:31.147Z,60.18
2018-07-22T20:38:00.899Z,60.21
2018-07-22T20:40:30.142Z,60.47
2018-07-22T20:42:59.304Z,61.04
2018-07-22T20:45:28.480Z,61.18
2018-07-22T20:47:57.782Z,61.17
2018-07-22T20:50:26.986Z,61.34
2018-07-22T20:52:56.279Z,61.49
2018-07-22T20:55:25.545Z,61.80
2018-07-22T20:57:54.788Z,61.87
2018-07-22T21:00:23.930Z,62.38
2018-07-22T21:02:53.622Z,62.57
2018-07-22T21:05:23.707Z,63.11
2018-07-22T21:07:52.901Z,62.97
2018-07-22T21:10:22.056Z,63.42
2018-07-22T21:13:27.482Z,64.16
2018-07-22T21:15:56.762Z,63.85
2018-07-22T21:18:26.609Z,64.62
2018-07-22T21:20:55.802Z,64.56
2018-07-22T21:23:24.927Z,65.15
2018-07-22T21:25:54.061Z,65.19
2018-07-22T21:28:23.213Z,65.45
